createdAt,value
2022-08-20T00:00:14.247Z,68.15
2022-08-20T00:01:14.397Z,67.22
2022-08-20T00:02:14.311Z,66.79
2022-08-20T00:03:14.218Z,65.58
2022-08-20T00:04:14.207Z,65.02
2022-08-20T00:05:14.200Z,64.81
2022-08-20T00:06:14.188Z,64.97
2022-08-20T00:07:14.508Z,65.99
2022-08-20T00:08:14.168Z,65.68
2022-08-20T00:09:14.155Z,64.86
2022-08-20T00:10:14.146Z,64.07
2022-08-20T00:11:14.151Z,64.36
2022-08-20T00:12:14.157Z,64.46
2022-08-20T00:13:18.163Z,64.76
2022-08-20T00:14:14.107Z,64.56
2022-08-20T00:15:14.088Z,64.32
2022-08-20T00:16:14.079Z,63.77
2022-08-20T00:17:14.082Z,63.10
2022-08-20T00:18:14.059Z,63.10
2022-08-20T00:19:14.218Z,62.49
2022-08-20T00:20:14.048Z,61.29
2022-08-20T00:21:18.932Z,61.02
2022-08-20T00:22:15.021Z,60.71
2022-08-20T00:23:14.008Z,60.01
2022-08-20T00:24:14.450Z,60.71
2022-08-20T00:25:13.993Z,60.80
2022-08-20T00:26:13.987Z,61.34
2022-08-20T00:27:13.970Z,62.02
2022-08-20T00:28:13.963Z,62.07
2022-08-20T00:29:13.948Z,62.49
2022-08-20T00:30:14.089Z,63.44
2022-08-20T00:31:13.920Z,64.26
2022-08-20T00:32:13.930Z,65.68
2022-08-20T00:33:13.904Z,65.22
2022-08-20T00:34:13.898Z,65.99
2022-08-20T00:35:14.041Z,65.79
2022-08-20T00:36:13.921Z,67.49
2022-08-20T00:37:13.868Z,66.84
2022-08-20T00:38:13.885Z,67.60
2022-08-20T00:39:13.829Z,67.98
2022-08-20T00:40:22.188Z,67.60
2022-08-20T00:41:14.999Z,67.32
2022-08-20T00:42:13.805Z,67.27
2022-08-20T00:43:13.806Z,66.31
2022-08-20T00:44:13.795Z,64.56
2022-08-20T00:45:13.779Z,64.51
2022-08-20T00:46:13.773Z,64.22
2022-08-20T00:47:13.901Z,63.19
2022-08-20T00:48:13.744Z,63.48
2022-08-20T00:49:13.732Z,63.39
2022-08-20T00:50:13.722Z,62.62
2022-08-20T00:51:13.719Z,62.16
2022-08-20T00:52:13.746Z,60.89
2022-08-20T00:53:13.851Z,60.89
2022-08-20T00:54:13.681Z,61.34
2022-08-20T00:55:13.674Z,60.32
2022-08-20T00:56:13.661Z,60.98
2022-08-20T00:57:13.641Z,60.76
2022-08-20T00:58:13.645Z,60.98
2022-08-20T00:59:13.829Z,60.01
2022-08-20T01:00:13.611Z,60.62
2022-08-20T01:01:13.651Z,59.71
2022-08-20T01:02:13.640Z,59.20
2022-08-20T01:03:13.738Z,58.91
2022-08-20T01:04:13.627Z,59.33
2022-08-20T01:05:13.555Z,58.50
2022-08-20T01:06:13.559Z,58.58
2022-08-20T01:07:13.877Z,57.85
2022-08-20T01:08:13.531Z,57.14
2022-08-20T01:09:13.516Z,57.45
2022-08-20T01:10:13.514Z,56.40
2022-08-20T01:11:13.491Z,56.56
2022-08-20T01:12:13.493Z,55.84
2022-08-20T01:13:13.635Z,56.14
2022-08-20T01:14:13.462Z,55.99
2022-08-20T01:15:13.450Z,56.10
2022-08-20T01:16:13.445Z,55.91
2022-08-20T01:17:13.431Z,56.25
2022-08-20T01:18:13.757Z,56.59
2022-08-20T01:19:29.394Z,57.02
2022-08-20T01:20:14.394Z,57.57
2022-08-20T01:21:13.396Z,58.17
2022-08-20T01:22:13.394Z,58.91
2022-08-20T01:23:13.363Z,58.29
2022-08-20T01:24:13.559Z,58.01
2022-08-20T01:25:13.394Z,58.62
2022-08-20T01:26:13.334Z,58.42
2022-08-20T01:27:13.323Z,59.76
2022-08-20T01:28:13.325Z,59.20
2022-08-20T01:29:13.563Z,59.76
2022-08-20T01:30:13.292Z,59.54
2022-08-20T01:31:13.301Z,59.58
2022-08-20T01:32:13.276Z,59.08
2022-08-20T01:33:13.278Z,59.20
2022-08-20T01:34:13.276Z,59.12
2022-08-20T01:35:13.413Z,58.91
2022-08-20T01:36:13.252Z,59.33
2022-08-20T01:37:13.227Z,59.37
2022-08-20T01:38:13.216Z,59.16
2022-08-20T01:39:13.374Z,60.01
2022-08-20T01:40:13.236Z,59.50
2022-08-20T01:41:13.177Z,59.63
2022-08-20T01:42:13.163Z,59.20
2022-08-20T01:43:13.165Z,59.04
2022-08-20T01:44:18.426Z,59.25
2022-08-20T01:45:14.134Z,58.70
2022-08-20T01:46:13.166Z,59.25
2022-08-20T01:47:13.108Z,58.91
2022-08-20T01:48:13.104Z,58.25
2022-08-20T01:49:13.769Z,57.85
2022-08-20T01:50:14.414Z,57.21
2022-08-20T01:51:13.072Z,57.45
2022-08-20T01:52:13.095Z,57.17
2022-08-20T01:53:13.055Z,57.77
2022-08-20T01:54:13.055Z,58.46
2022-08-20T01:55:13.035Z,57.65
2022-08-20T01:56:13.326Z,57.49
2022-08-20T01:57:13.004Z,57.53
2022-08-20T01:58:12.994Z,57.85
2022-08-20T01:59:12.986Z,57.77
2022-08-20T02:00:19.575Z,56.83
2022-08-20T02:01:14.149Z,56.06
2022-08-20T02:02:12.970Z,55.24
2022-08-20T02:03:12.946Z,54.35
2022-08-20T02:04:20.452Z,53.34
2022-08-20T02:05:12.923Z,52.43
2022-08-20T02:06:12.936Z,51.56
2022-08-20T02:07:13.062Z,51.05
2022-08-20T02:08:12.906Z,49.89
2022-08-20T02:09:16.068Z,49.45
2022-08-20T02:10:12.865Z,48.84
2022-08-20T02:11:12.863Z,48.50
2022-08-20T02:12:13.073Z,47.78
2022-08-20T02:13:12.834Z,47.35
2022-08-20T02:14:12.835Z,46.92
2022-08-20T02:15:12.831Z,46.66
2022-08-20T02:16:12.802Z,46.61
2022-08-20T02:17:12.794Z,46.56
2022-08-20T02:18:13.119Z,46.61
2022-08-20T02:19:12.772Z,46.50
2022-08-20T02:20:12.768Z,46.19
2022-08-20T02:21:12.766Z,45.84
2022-08-20T02:22:12.743Z,46.04
2022-08-20T02:23:12.734Z,45.44
2022-08-20T02:24:12.951Z,45.10
2022-08-20T02:25:12.712Z,45.00
2022-08-20T02:26:12.707Z,45.00
2022-08-20T02:27:12.712Z,45.05
2022-08-20T02:28:12.678Z,45.10
2022-08-20T02:29:12.663Z,44.81
2022-08-20T02:30:27.880Z,44.62
2022-08-20T02:31:13.645Z,44.62
2022-08-20T02:32:24.490Z,44.62
2022-08-20T02:33:13.632Z,44.43
2022-08-20T02:34:22.548Z,44.47
2022-08-20T02:35:13.764Z,44.85
2022-08-20T02:36:12.595Z,45.10
2022-08-20T02:37:12.594Z,45.39
2022-08-20T02:38:12.579Z,45.79
2022-08-20T02:39:12.569Z,46.35
2022-08-20T02:40:12.582Z,46.35
2022-08-20T02:41:12.703Z,46.40
2022-08-20T02:42:12.544Z,46.19
2022-08-20T02:43:12.519Z,46.04
2022-08-20T02:44:12.506Z,45.89
2022-08-20T02:45:16.519Z,46.04
2022-08-20T02:46:13.636Z,46.14
2022-08-20T02:47:12.475Z,46.35
2022-08-20T02:48:12.487Z,46.35
2022-08-20T02:49:12.456Z,46.35
2022-08-20T02:50:12.484Z,46.40
2022-08-20T02:51:12.495Z,46.56
2022-08-20T02:52:12.648Z,46.97
2022-08-20T02:53:12.415Z,47.72
2022-08-20T02:54:12.415Z,48.36
2022-08-20T02:55:12.391Z,48.84
2022-08-20T02:56:13.386Z,49.42
2022-08-20T02:57:12.382Z,50.13
2022-08-20T02:58:12.784Z,50.01
2022-08-20T02:59:18.986Z,50.62
2022-08-20T03:00:13.364Z,50.80
2022-08-20T03:01:12.343Z,50.74
2022-08-20T03:02:12.317Z,50.68
2022-08-20T03:03:12.316Z,50.28
2022-08-20T03:04:12.466Z,50.19
2022-08-20T03:05:12.327Z,50.19
2022-08-20T03:06:12.292Z,50.47
2022-08-20T03:07:12.286Z,50.68
2022-08-20T03:08:12.257Z,50.93
2022-08-20T03:09:12.252Z,50.80
2022-08-20T03:10:12.561Z,51.12
2022-08-20T03:11:12.226Z,50.93
2022-08-20T03:12:12.218Z,50.80
2022-08-20T03:13:12.218Z,50.96
2022-08-20T03:14:12.198Z,50.50
2022-08-20T03:15:17.535Z,49.95
2022-08-20T03:16:13.568Z,49.80
2022-08-20T03:17:12.158Z,49.80
2022-08-20T03:18:12.182Z,49.54
2022-08-20T03:19:12.138Z,49.42
2022-08-20T03:20:12.139Z,48.90
2022-08-20T03:21:12.156Z,48.61
2022-08-20T03:22:12.327Z,48.67
2022-08-20T03:23:12.087Z,48.44
2022-08-20T03:24:12.094Z,48.28
2022-08-20T03:25:12.069Z,48.36
2022-08-20T03:26:12.066Z,48.47
2022-08-20T03:27:12.059Z,48.47
2022-08-20T03:28:12.246Z,48.33
2022-08-20T03:29:12.027Z,48.58
2022-08-20T03:30:12.038Z,48.70
2022-08-20T03:31:14.737Z,48.87
2022-08-20T03:32:11.999Z,49.19
2022-08-20T03:33:12.164Z,49.45
2022-08-20T03:34:11.987Z,49.57
2022-08-20T03:35:11.997Z,49.77
2022-08-20T03:36:11.992Z,49.95
2022-08-20T03:37:11.939Z,50.16
2022-08-20T03:38:11.937Z,50.47
2022-08-20T03:39:12.102Z,50.40
2022-08-20T03:40:11.973Z,50.34
2022-08-20T03:41:11.914Z,50.07
2022-08-20T03:42:11.931Z,49.80
2022-08-20T03:43:11.883Z,49.71
2022-08-20T03:44:11.869Z,49.86
2022-08-20T03:45:12.095Z,49.89
2022-08-20T03:46:21.998Z,49.63
2022-08-20T03:47:12.839Z,49.51
2022-08-20T03:48:11.835Z,49.57
2022-08-20T03:49:11.818Z,49.57
2022-08-20T03:50:23.259Z,50.04
2022-08-20T03:51:12.958Z,49.98
2022-08-20T03:52:11.788Z,50.01
2022-08-20T03:53:12.317Z,49.77
2022-08-20T03:54:11.780Z,50.16
2022-08-20T03:55:11.760Z,50.28
2022-08-20T03:56:12.119Z,50.83
2022-08-20T03:57:12.470Z,51.02
2022-08-20T03:58:11.736Z,51.49
2022-08-20T03:59:11.748Z,52.07
2022-08-20T04:00:11.733Z,52.56
2022-08-20T04:01:44.605Z,52.97
2022-08-20T04:02:13.033Z,53.89
2022-08-20T04:03:11.679Z,54.17
2022-08-20T04:04:12.445Z,54.49
2022-08-20T04:05:11.652Z,54.70
2022-08-20T04:06:11.652Z,54.67
2022-08-20T04:07:11.629Z,54.81
2022-08-20T04:08:11.774Z,55.61
2022-08-20T04:09:11.824Z,56.63
2022-08-20T04:10:11.601Z,57.17
2022-08-20T04:11:11.591Z,57.81
2022-08-20T04:12:11.576Z,57.97
2022-08-20T04:13:11.731Z,58.01
2022-08-20T04:14:11.595Z,58.21
2022-08-20T04:15:12.551Z,58.21
2022-08-20T04:16:12.823Z,58.21
2022-08-20T04:17:11.513Z,58.29
2022-08-20T04:18:11.532Z,58.17
2022-08-20T04:19:11.661Z,58.25
2022-08-20T04:20:11.501Z,58.05
2022-08-20T04:21:11.496Z,57.65
2022-08-20T04:22:11.468Z,57.77
2022-08-20T04:23:11.460Z,57.69
2022-08-20T04:24:22.506Z,57.21
2022-08-20T04:25:15.997Z,57.49
2022-08-20T04:26:11.422Z,57.65
2022-08-20T04:27:11.420Z,57.81
2022-08-20T04:28:11.401Z,58.33
2022-08-20T04:29:11.412Z,58.46
2022-08-20T04:30:11.635Z,58.66
2022-08-20T04:31:11.372Z,58.95
2022-08-20T04:32:11.360Z,58.74
2022-08-20T04:33:11.358Z,58.42
2022-08-20T04:34:11.337Z,58.09
2022-08-20T04:35:11.331Z,57.73
2022-08-20T04:36:11.487Z,57.06
2022-08-20T04:37:16.989Z,56.21
2022-08-20T04:38:12.301Z,55.65
2022-08-20T04:39:11.296Z,55.32
2022-08-20T04:40:11.319Z,55.39
2022-08-20T04:41:11.442Z,55.58
2022-08-20T04:42:12.265Z,55.54
2022-08-20T04:43:12.397Z,55.76
2022-08-20T04:44:11.231Z,55.65
2022-08-20T04:45:11.233Z,55.47
2022-08-20T04:46:11.233Z,54.88
2022-08-20T04:47:11.357Z,54.52
2022-08-20T04:48:14.907Z,53.96
2022-08-20T04:49:11.172Z,53.54
2022-08-20T04:50:11.163Z,53.30
2022-08-20T04:51:11.175Z,53.00
2022-08-20T04:52:11.871Z,52.60
2022-08-20T04:53:11.139Z,52.90
2022-08-20T04:54:11.129Z,52.83
2022-08-20T04:55:11.114Z,52.97
2022-08-20T04:56:11.105Z,52.66
2022-08-20T04:57:11.104Z,52.33
2022-08-20T04:58:11.299Z,51.78
2022-08-20T04:59:11.077Z,51.56
2022-08-20T05:00:11.057Z,51.62
2022-08-20T05:01:11.088Z,51.49
2022-08-20T05:02:11.063Z,51.30
2022-08-20T05:03:11.041Z,51.05
2022-08-20T05:04:11.174Z,50.74
2022-08-20T05:05:11.099Z,50.47
2022-08-20T05:06:10.998Z,50.25
2022-08-20T05:07:10.985Z,50.40
2022-08-20T05:08:20.003Z,50.34
2022-08-20T05:09:12.186Z,49.95
2022-08-20T05:10:10.953Z,50.25
2022-08-20T05:11:32.829Z,50.16
2022-08-20T05:12:11.947Z,50.28
2022-08-20T05:13:10.947Z,49.98
2022-08-20T05:14:10.908Z,50.04
2022-08-20T05:15:11.216Z,49.63
2022-08-20T05:16:10.895Z,49.16
2022-08-20T05:17:10.885Z,48.78
2022-08-20T05:18:10.873Z,48.39
2022-08-20T05:19:10.879Z,48.36
2022-08-20T05:20:10.853Z,47.89
2022-08-20T05:21:11.023Z,47.45
2022-08-20T05:22:10.833Z,46.97
2022-08-20T05:23:10.823Z,46.97
2022-08-20T05:24:10.804Z,47.03
2022-08-20T05:25:10.890Z,47.16
2022-08-20T05:26:10.784Z,47.26
2022-08-20T05:27:10.935Z,47.45
2022-08-20T05:28:11.766Z,47.32
2022-08-20T05:29:10.757Z,47.16
2022-08-20T05:30:11.780Z,47.13
2022-08-20T05:31:10.759Z,46.76
2022-08-20T05:32:10.726Z,46.82
2022-08-20T05:33:10.892Z,46.87
2022-08-20T05:34:11.758Z,46.40
2022-08-20T05:35:10.685Z,46.56
2022-08-20T05:36:10.683Z,46.35
2022-08-20T05:37:10.678Z,46.45
2022-08-20T05:38:10.661Z,46.09
2022-08-20T05:39:10.887Z,46.19
2022-08-20T05:40:10.787Z,45.94
2022-08-20T05:41:10.632Z,45.39
2022-08-20T05:42:10.618Z,45.10
2022-08-20T05:43:10.625Z,44.57
2022-08-20T05:44:10.623Z,44.33
2022-08-20T05:45:11.115Z,44.19
2022-08-20T05:46:10.581Z,43.73
2022-08-20T05:47:10.567Z,43.37
2022-08-20T05:48:10.555Z,43.28
2022-08-20T05:49:10.550Z,42.61
2022-08-20T05:50:10.544Z,42.57
2022-08-20T05:51:15.139Z,42.22
2022-08-20T05:52:10.533Z,42.01
2022-08-20T05:53:10.507Z,41.55
2022-08-20T05:54:10.498Z,41.22
2022-08-20T05:55:10.476Z,40.58
2022-08-20T05:56:10.627Z,40.50
2022-08-20T05:57:10.558Z,40.50
2022-08-20T05:58:10.458Z,39.96
2022-08-20T05:59:10.457Z,40.15
2022-08-20T06:00:10.435Z,40.00
2022-08-20T06:01:10.479Z,39.85
2022-08-20T06:02:10.563Z,40.00
2022-08-20T06:03:10.401Z,40.08
2022-08-20T06:04:10.387Z,40.43
2022-08-20T06:05:10.397Z,40.58
2022-08-20T06:06:18.043Z,40.50
2022-08-20T06:07:11.552Z,40.70
2022-08-20T06:08:10.338Z,41.26
2022-08-20T06:09:10.329Z,41.59
2022-08-20T06:10:10.330Z,42.18
2022-08-20T06:11:10.319Z,42.66
2022-08-20T06:12:10.358Z,43.14
2022-08-20T06:13:10.460Z,44.00
2022-08-20T06:14:10.434Z,43.87
2022-08-20T06:15:10.274Z,44.10
2022-08-20T06:16:10.261Z,44.24
2022-08-20T06:17:10.263Z,44.47
2022-08-20T06:18:27.313Z,44.14
2022-08-20T06:19:11.650Z,44.10
2022-08-20T06:20:10.208Z,44.90
2022-08-20T06:21:10.208Z,44.90
2022-08-20T06:22:19.969Z,45.10
2022-08-20T06:23:11.187Z,45.24
2022-08-20T06:24:10.178Z,45.24
2022-08-20T06:25:10.373Z,44.90
2022-08-20T06:26:10.148Z,44.90
2022-08-20T06:27:10.148Z,45.64
2022-08-20T06:28:10.128Z,45.05
2022-08-20T06:29:10.118Z,44.81
2022-08-20T06:30:10.154Z,44.52
2022-08-20T06:31:10.266Z,44.85
2022-08-20T06:32:10.079Z,45.24
2022-08-20T06:33:10.083Z,44.71
2022-08-20T06:34:10.070Z,44.71
2022-08-20T06:35:10.061Z,44.62
2022-08-20T06:36:10.199Z,44.47
2022-08-20T06:37:10.097Z,44.19
2022-08-20T06:38:10.063Z,44.00
2022-08-20T06:39:10.019Z,44.28
2022-08-20T06:40:10.115Z,43.96
2022-08-20T06:41:09.999Z,43.64
2022-08-20T06:42:10.136Z,44.00
2022-08-20T06:43:09.992Z,42.92
2022-08-20T06:44:09.964Z,41.39
2022-08-20T06:45:09.948Z,39.81
2022-08-20T06:46:09.944Z,39.58
2022-08-20T06:47:10.099Z,38.77
2022-08-20T06:48:09.918Z,38.42
2022-08-20T06:49:10.916Z,38.03
2022-08-20T06:50:09.901Z,38.38
2022-08-20T06:51:09.889Z,37.86
2022-08-20T06:52:09.880Z,37.76
2022-08-20T06:53:10.034Z,37.93
2022-08-20T06:54:09.859Z,38.24
2022-08-20T06:55:09.850Z,38.28
2022-08-20T06:56:09.839Z,38.38
2022-08-20T06:57:09.839Z,38.74
2022-08-20T06:58:15.673Z,39.85
2022-08-20T06:59:10.802Z,40.27
2022-08-20T07:00:09.804Z,40.12
2022-08-20T07:01:11.081Z,40.62
2022-08-20T07:02:09.767Z,41.14
2022-08-20T07:03:09.769Z,41.10
2022-08-20T07:04:09.940Z,41.06
2022-08-20T07:05:09.746Z,41.22
2022-08-20T07:06:09.731Z,41.55
2022-08-20T07:07:09.734Z,41.76
2022-08-20T07:08:09.709Z,41.76
2022-08-20T07:09:10.042Z,42.05
2022-08-20T07:10:09.699Z,41.51
2022-08-20T07:11:09.681Z,41.84
2022-08-20T07:12:09.671Z,41.06
2022-08-20T07:13:09.701Z,40.35
2022-08-20T07:14:09.642Z,40.94
2022-08-20T07:15:09.812Z,41.55
2022-08-20T07:16:09.624Z,42.05
2022-08-20T07:17:12.256Z,41.84
2022-08-20T07:18:09.598Z,42.83
2022-08-20T07:19:09.590Z,43.19
2022-08-20T07:20:09.588Z,43.54
2022-08-20T07:21:09.723Z,43.50
2022-08-20T07:22:09.553Z,44.76
2022-08-20T07:23:09.612Z,44.95
2022-08-20T07:24:09.543Z,45.49
2022-08-20T07:25:09.543Z,45.19
2022-08-20T07:26:09.691Z,46.04
2022-08-20T07:27:09.524Z,46.61
2022-08-20T07:28:09.496Z,46.71
2022-08-20T07:29:09.512Z,47.70
2022-08-20T07:30:12.632Z,47.75
2022-08-20T07:31:13.565Z,47.83
2022-08-20T07:32:09.743Z,47.78
2022-08-20T07:33:09.463Z,47.83
2022-08-20T07:34:09.432Z,47.16
2022-08-20T07:35:09.422Z,46.76
2022-08-20T07:36:09.408Z,46.45
2022-08-20T07:37:09.583Z,45.79
2022-08-20T07:38:09.398Z,44.95
2022-08-20T07:39:09.472Z,44.38
2022-08-20T07:40:09.524Z,44.57
2022-08-20T07:41:09.363Z,44.95
2022-08-20T07:42:09.358Z,44.57
2022-08-20T07:43:09.353Z,45.19
2022-08-20T07:44:09.333Z,45.34
2022-08-20T07:45:09.323Z,45.29
2022-08-20T07:46:09.347Z,45.24
2022-08-20T07:47:09.303Z,45.00
2022-08-20T07:48:09.555Z,45.05
2022-08-20T07:49:09.295Z,44.90
2022-08-20T07:50:09.286Z,44.47
2022-08-20T07:51:09.259Z,43.96
2022-08-20T07:52:09.248Z,43.82
2022-08-20T07:53:09.970Z,43.23
2022-08-20T07:54:10.046Z,42.57
2022-08-20T07:55:09.235Z,42.57
2022-08-20T07:56:09.203Z,43.05
2022-08-20T07:57:09.189Z,42.61
2022-08-20T07:58:09.224Z,42.70
2022-08-20T07:59:10.228Z,42.57
2022-08-20T08:00:09.856Z,42.35
2022-08-20T08:01:09.308Z,42.01
2022-08-20T08:02:09.188Z,41.68
2022-08-20T08:03:09.124Z,41.22
2022-08-20T08:04:09.226Z,40.86
2022-08-20T08:05:09.104Z,40.66
2022-08-20T08:06:09.283Z,40.23
2022-08-20T08:07:09.084Z,39.66
2022-08-20T08:08:09.067Z,39.54
2022-08-20T08:09:09.075Z,40.19
2022-08-20T08:10:09.044Z,40.98
2022-08-20T08:11:09.051Z,41.63
2022-08-20T08:12:09.186Z,41.72
2022-08-20T08:13:09.028Z,42.57
2022-08-20T08:14:09.011Z,42.48
2022-08-20T08:15:09.004Z,42.44
2022-08-20T08:16:08.998Z,43.10
2022-08-20T08:17:09.127Z,43.23
2022-08-20T08:18:09.143Z,43.46
2022-08-20T08:19:16.485Z,43.19
2022-08-20T08:20:08.967Z,42.14
2022-08-20T08:21:08.937Z,42.31
2022-08-20T08:22:09.143Z,42.35
2022-08-20T08:23:08.927Z,42.53
2022-08-20T08:24:09.913Z,43.14
2022-08-20T08:25:08.898Z,43.91
2022-08-20T08:26:08.952Z,44.85
2022-08-20T08:27:10.824Z,45.49
2022-08-20T08:28:08.874Z,45.79
2022-08-20T08:29:08.859Z,45.34
2022-08-20T08:30:08.857Z,45.59
2022-08-20T08:31:08.833Z,45.44
2022-08-20T08:32:08.849Z,46.76
2022-08-20T08:33:09.052Z,47.42
2022-08-20T08:34:08.802Z,47.18
2022-08-20T08:35:08.798Z,47.40
2022-08-20T08:36:08.773Z,47.35
2022-08-20T08:37:08.773Z,47.16
2022-08-20T08:38:08.807Z,47.24
2022-08-20T08:39:09.941Z,47.16
2022-08-20T08:40:08.804Z,47.16
2022-08-20T08:41:08.739Z,47.21
2022-08-20T08:42:08.714Z,46.92
2022-08-20T08:43:09.704Z,47.29
2022-08-20T08:44:08.933Z,47.21
2022-08-20T08:45:08.691Z,46.76
2022-08-20T08:46:08.694Z,46.76
2022-08-20T08:47:08.669Z,47.51
2022-08-20T08:48:08.655Z,48.00
2022-08-20T08:49:08.647Z,48.70
2022-08-20T08:50:08.978Z,49.19
2022-08-20T08:51:08.613Z,48.14
2022-08-20T08:52:08.623Z,47.92
2022-08-20T08:53:08.594Z,47.35
2022-08-20T08:54:08.589Z,46.66
2022-08-20T08:55:08.589Z,47.13
2022-08-20T08:56:08.739Z,47.62
2022-08-20T08:57:08.563Z,47.94
2022-08-20T08:58:16.551Z,48.33
2022-08-20T08:59:09.533Z,47.45
2022-08-20T09:00:08.543Z,47.67
2022-08-20T09:01:09.862Z,48.30
2022-08-20T09:02:09.708Z,48.05
2022-08-20T09:03:08.496Z,48.36
2022-08-20T09:04:08.502Z,48.64
2022-08-20T09:05:08.516Z,49.04
2022-08-20T09:06:08.469Z,48.28
2022-08-20T09:07:08.458Z,47.92
2022-08-20T09:08:08.684Z,48.14
2022-08-20T09:09:08.432Z,49.27
2022-08-20T09:10:08.446Z,48.90
2022-08-20T09:11:08.417Z,48.96
2022-08-20T09:12:08.405Z,48.17
2022-08-20T09:13:08.402Z,47.53
2022-08-20T09:14:08.549Z,47.72
2022-08-20T09:15:08.373Z,48.03
2022-08-20T09:16:08.392Z,47.05
2022-08-20T09:17:08.354Z,45.84
2022-08-20T09:18:08.350Z,45.39
2022-08-20T09:19:08.540Z,44.85
2022-08-20T09:20:08.327Z,44.28
2022-08-20T09:21:08.321Z,44.57
2022-08-20T09:22:08.300Z,44.38
2022-08-20T09:23:08.327Z,45.49
2022-08-20T09:24:08.305Z,46.97
2022-08-20T09:25:08.418Z,48.61
2022-08-20T09:26:08.259Z,49.45
2022-08-20T09:27:08.261Z,49.71
2022-08-20T09:28:08.227Z,50.31
2022-08-20T09:29:08.221Z,51.88
2022-08-20T09:30:08.219Z,51.69
2022-08-20T09:31:08.376Z,51.69
2022-08-20T09:32:08.193Z,51.97
2022-08-20T09:33:08.185Z,51.56
2022-08-20T09:34:08.169Z,51.49
2022-08-20T09:35:09.561Z,52.40
2022-08-20T09:36:31.836Z,53.41
2022-08-20T09:37:09.307Z,53.75
2022-08-20T09:38:08.130Z,53.51
2022-08-20T09:39:08.122Z,53.51
2022-08-20T09:40:08.192Z,53.82
2022-08-20T09:41:08.142Z,53.07
2022-08-20T09:42:08.108Z,51.75
2022-08-20T09:43:08.250Z,51.49
2022-08-20T09:44:08.064Z,51.59
2022-08-20T09:45:10.963Z,50.65
2022-08-20T09:46:08.047Z,49.65
2022-08-20T09:47:08.028Z,50.16
2022-08-20T09:48:10.334Z,51.18
2022-08-20T09:49:08.931Z,51.49
2022-08-20T09:50:08.004Z,52.17
2022-08-20T09:51:07.999Z,53.75
2022-08-20T09:52:07.984Z,54.88
2022-08-20T09:53:07.961Z,54.38
2022-08-20T09:54:07.956Z,53.61
2022-08-20T09:55:08.113Z,53.65
2022-08-20T09:56:07.947Z,53.65
2022-08-20T09:57:07.915Z,54.49
2022-08-20T09:58:07.919Z,54.31
2022-08-20T09:59:07.905Z,55.47
2022-08-20T10:00:08.156Z,56.83
2022-08-20T10:01:07.881Z,58.58
2022-08-20T10:02:08.951Z,60.49
2022-08-20T10:03:07.886Z,62.34
2022-08-20T10:04:07.843Z,63.29
2022-08-20T10:05:07.839Z,64.56
2022-08-20T10:06:07.991Z,65.02
2022-08-20T10:07:07.822Z,63.87
2022-08-20T10:08:07.813Z,64.51
2022-08-20T10:09:07.787Z,66.31
2022-08-20T10:10:07.801Z,66.41
2022-08-20T10:11:07.770Z,66.26
2022-08-20T10:12:08.051Z,65.89
2022-08-20T10:13:07.758Z,63.77
2022-08-20T10:14:07.741Z,61.29
2022-08-20T10:15:07.726Z,59.84
2022-08-20T10:16:07.725Z,62.62
2022-08-20T10:17:07.717Z,65.32
2022-08-20T10:18:08.079Z,67.16
2022-08-20T10:19:07.687Z,69.34
2022-08-20T10:20:07.697Z,71.17
2022-08-20T10:21:07.655Z,72.03
2022-08-20T10:22:07.655Z,72.53
2022-08-20T10:23:07.638Z,73.17
2022-08-20T10:24:07.861Z,73.82
2022-08-20T10:25:07.632Z,73.75
2022-08-20T10:26:07.611Z,73.23
2022-08-20T10:27:07.602Z,73.17
2022-08-20T10:28:07.596Z,71.72
2022-08-20T10:29:07.578Z,70.81
2022-08-20T10:30:07.772Z,71.11
2022-08-20T10:31:08.075Z,71.85
2022-08-20T10:32:07.550Z,72.16
2022-08-20T10:33:07.537Z,70.45
2022-08-20T10:34:07.542Z,70.21
2022-08-20T10:35:07.528Z,72.79
2022-08-20T10:36:07.710Z,77.16
2022-08-20T10:37:07.515Z,80.82
2022-08-20T10:38:07.485Z,83.83
2022-08-20T10:39:07.479Z,87.16
2022-08-20T10:40:07.561Z,88.36
2022-08-20T10:41:07.455Z,88.54
2022-08-20T10:42:07.629Z,88.36
2022-08-20T10:43:07.437Z,89.49
2022-08-20T10:44:07.451Z,90.27
2022-08-20T10:45:07.412Z,92.06
2022-08-20T10:46:07.406Z,93.72
2022-08-20T10:47:07.405Z,94.03
2022-08-20T10:48:07.585Z,94.35
2022-08-20T10:49:07.393Z,90.27
2022-08-20T10:50:07.372Z,88.64
2022-08-20T10:51:07.352Z,90.07
2022-08-20T10:52:07.665Z,90.66
2022-08-20T10:53:07.329Z,90.46
2022-08-20T10:54:08.265Z,93.09
2022-08-20T10:55:08.315Z,93.82
2022-08-20T10:56:07.296Z,93.82
2022-08-20T10:57:07.290Z,93.30
2022-08-20T10:58:07.445Z,91.16
2022-08-20T10:59:07.275Z,86.97
2022-08-20T11:00:07.256Z,89.21
2022-08-20T11:01:07.239Z,86.52
2022-08-20T11:02:07.260Z,83.33
2022-08-20T11:03:07.229Z,82.10
2022-08-20T11:04:07.521Z,86.89
2022-08-20T11:05:07.203Z,89.02
2022-08-20T11:06:07.249Z,92.37
2022-08-20T11:07:07.173Z,93.93
2022-08-20T11:08:07.174Z,93.30
2022-08-20T11:09:09.679Z,90.66
2022-08-20T11:10:11.798Z,92.16
2022-08-20T11:11:08.163Z,94.35
2022-08-20T11:12:07.134Z,92.88
2022-08-20T11:13:07.115Z,92.06
2022-08-20T11:14:07.134Z,91.86
2022-08-20T11:15:07.131Z,87.71
2022-08-20T11:16:07.487Z,85.81
2022-08-20T11:17:07.072Z,89.30
2022-08-20T11:18:07.085Z,92.16
2022-08-20T11:19:07.049Z,90.66
2022-08-20T11:20:07.049Z,86.89
2022-08-20T11:21:07.027Z,83.41
2022-08-20T11:22:07.046Z,79.29
2022-08-20T11:23:07.015Z,77.38
2022-08-20T11:24:06.992Z,78.32
2022-08-20T11:25:06.992Z,74.68
2022-08-20T11:26:06.966Z,80.28
2022-08-20T11:27:06.981Z,85.55
2022-08-20T11:28:07.296Z,90.46
2022-08-20T11:29:06.948Z,93.86
2022-08-20T11:30:06.935Z,98.33
2022-08-20T11:31:06.953Z,101.82
2022-08-20T11:32:06.912Z,100.59
2022-08-20T11:33:06.902Z,102.38
2022-08-20T11:34:12.094Z,102.75
2022-08-20T11:35:38.426Z,101.69
2022-08-20T11:36:07.866Z,96.57
2022-08-20T11:37:06.872Z,91.96
2022-08-20T11:38:06.864Z,85.72
2022-08-20T11:39:06.842Z,80.43
2022-08-20T11:40:07.104Z,76.39
2022-08-20T11:41:06.826Z,73.23
2022-08-20T11:42:06.812Z,75.15
2022-08-20T11:43:15.625Z,74.74
2022-08-20T11:44:21.321Z,74.01
2022-08-20T11:45:07.964Z,79.59
2022-08-20T11:46:06.759Z,84.34
2022-08-20T11:47:06.768Z,87.52
2022-08-20T11:48:06.752Z,90.07
2022-08-20T11:49:06.729Z,91.86
2022-08-20T11:50:06.726Z,94.35
2022-08-20T11:51:06.953Z,95.65
2022-08-20T11:52:06.698Z,98.33
2022-08-20T11:53:08.038Z,100.71
2022-08-20T11:54:06.673Z,103.07
2022-08-20T11:55:06.669Z,100.53
2022-08-20T11:56:06.663Z,96.18
2022-08-20T11:57:06.814Z,98.51
2022-08-20T11:58:06.636Z,98.57
2022-08-20T11:59:06.650Z,98.68
2022-08-20T12:00:06.624Z,101.01
2022-08-20T12:01:06.599Z,101.20
2022-08-20T12:02:11.631Z,99.93
2022-08-20T12:03:09.565Z,99.69
2022-08-20T12:04:06.566Z,98.45
2022-08-20T12:05:06.568Z,100.47
2022-08-20T12:06:06.551Z,105.55
2022-08-20T12:07:06.539Z,106.49
2022-08-20T12:08:06.534Z,108.29
2022-08-20T12:09:06.688Z,106.09
2022-08-20T12:10:06.517Z,107.87
2022-08-20T12:11:06.497Z,106.90
2022-08-20T12:12:06.483Z,109.28
2022-08-20T12:13:06.484Z,111.10
2022-08-20T12:14:06.461Z,114.77
2022-08-20T12:15:06.622Z,118.94
2022-08-20T12:16:06.441Z,120.49
2022-08-20T12:17:06.431Z,119.28
2022-08-20T12:18:06.421Z,115.48
2022-08-20T12:19:06.419Z,117.02
2022-08-20T12:20:06.401Z,119.28
2022-08-20T12:21:06.734Z,115.25
2022-08-20T12:22:24.326Z,110.51
2022-08-20T12:23:07.393Z,110.59
2022-08-20T12:24:06.365Z,114.22
2022-08-20T12:25:06.346Z,116.78
2022-08-20T12:26:06.340Z,120.14
2022-08-20T12:27:06.492Z,122.70
2022-08-20T12:28:06.314Z,121.81
2022-08-20T12:29:06.312Z,122.25
2022-08-20T12:30:06.311Z,120.49
2022-08-20T12:31:06.323Z,115.89
2022-08-20T12:32:06.272Z,119.11
2022-08-20T12:33:06.603Z,121.10
2022-08-20T12:34:06.263Z,118.18
2022-08-20T12:35:06.241Z,112.22
2022-08-20T12:36:06.244Z,110.88
2022-08-20T12:37:06.219Z,113.99
2022-08-20T12:38:06.201Z,114.53
2022-08-20T12:39:06.548Z,113.83
2022-08-20T12:40:06.299Z,107.25
2022-08-20T12:41:06.198Z,104.30
2022-08-20T12:42:06.162Z,103.78
2022-08-20T12:43:06.156Z,100.41
2022-08-20T12:44:06.144Z,96.91
2022-08-20T12:45:06.472Z,95.90
2022-08-20T12:46:06.135Z,94.82
2022-08-20T12:47:06.117Z,99.04
2022-08-20T12:48:06.116Z,104.75
2022-08-20T12:49:06.096Z,106.15
2022-08-20T12:50:06.106Z,104.23